Time;durP1;ratioP1;P1;durP2;ratioP2;P2;SDS_P1;SDS_P2;PMS_P1;PMS_P2;Temp;Humidity;BMP_temperature;BMP_pressure;BME280_temperature;BME280_humidity;BME280_pressure;Samples;Min_cycle;Max_cycle;Signal;HPM_P1;HPM_P2
2022/08/08 00:00:42;;;;;;;4.15;2.88;;;;;;;14.55;92.28;102531.03;5013940;28;20056;-78
2022/08/08 00:03:26;;;;;;;5.07;2.67;;;;;;;14.49;92.35;102533.91;5036984;28;20116;-77
2022/08/08 00:06:15;;;;;;;5.85;2.90;;;;;;;14.47;92.62;102541.06;5036626;28;20114;-78
2022/08/08 00:08:42;;;;;;;4.45;2.65;;;;;;;14.43;92.05;102534.97;5038786;28;20025;-78
2022/08/08 00:11:14;;;;;;;3.75;2.90;;;;;;;14.39;92.83;102533.38;5023652;28;20056;-78
2022/08/08 00:14:11;;;;;;;5.80;2.95;;;;;;;14.38;94.01;102542.25;5035208;28;20034;-78
2022/08/08 00:16:48;;;;;;;4.75;2.95;;;;;;;14.35;94.36;102542.38;5038643;28;20048;-79
2022/08/08 00:19:30;;;;;;;4.15;3.00;;;;;;;14.29;93.91;102542.56;5020879;28;20069;-79
2022/08/08 00:22:03;;;;;;;5.03;2.75;;;;;;;14.23;93.42;102543.66;5025092;28;20053;-78
2022/08/08 00:24:36;;;;;;;7.63;3.00;;;;;;;14.19;93.78;102547.34;5036158;28;20038;-78
2022/08/08 00:27:05;;;;;;;6.25;3.40;;;;;;;14.16;94.86;102543.00;5040533;28;20104;-78
2022/08/08 00:29:34;;;;;;;4.15;3.10;;;;;;;14.19;94.57;102547.34;5041660;28;20040;-77
2022/08/08 00:32:13;;;;;;;4.53;3.13;;;;;;;14.15;95.35;102541.25;5037908;28;20041;-77
2022/08/08 00:37:41;;;;;;;5.15;3.58;;;;;;;14.03;95.20;102542.53;5019707;28;20479;-79
2022/08/08 00:40:26;;;;;;;4.88;3.38;;;;;;;13.98;95.58;102545.34;5024999;28;20040;-79
2022/08/08 00:43:03;;;;;;;6.82;3.00;;;;;;;13.95;95.34;102555.25;5023836;28;20024;-78
2022/08/08 00:46:00;;;;;;;4.95;3.42;;;;;;;13.95;97.21;102549.91;5037736;28;20491;-78
2022/08/08 00:48:31;;;;;;;4.88;3.30;;;;;;;13.93;96.73;102544.63;5023905;28;20101;-79
2022/08/08 00:51:21;;;;;;;4.95;3.47;;;;;;;13.95;97.44;102544.59;5039520;28;20028;-77
2022/08/08 00:54:11;;;;;;;5.60;3.28;;;;;;;13.98;98.47;102539.16;5038819;28;20029;-78
2022/08/08 00:57:02;;;;;;;5.40;3.55;;;;;;;14.01;98.56;102548.84;5013440;28;20081;-77
2022/08/08 00:59:47;;;;;;;4.25;3.15;;;;;;;14.03;98.31;102546.97;5000770;28;20041;-78
2022/08/08 01:02:29;;;;;;;5.55;4.05;;;;;;;14.06;97.73;102546.91;5003373;28;20040;-79
2022/08/08 01:05:07;;;;;;;4.47;3.50;;;;;;;14.09;98.28;102541.47;5000524;28;20029;-78
2022/08/08 01:07:39;;;;;;;5.25;4.03;;;;;;;14.09;97.84;102546.78;4998899;28;20042;-78
2022/08/08 01:10:36;;;;;;;4.97;3.57;;;;;;;14.10;98.30;102543.19;5000355;28;20484;-79
2022/08/08 01:13:10;;;;;;;3.95;3.25;;;;;;;14.11;98.08;102539.63;4998352;28;21689;-79
2022/08/08 01:15:55;;;;;;;5.30;3.45;;;;;;;14.09;98.39;102542.34;4995106;28;20064;-78
2022/08/08 01:18:43;;;;;;;7.47;3.58;;;;;;;14.09;98.93;102541.47;5018758;28;20061;-77
2022/08/08 01:21:08;;;;;;;8.00;3.95;;;;;;;14.09;98.39;102538.78;4994915;28;20502;-78
2022/08/08 01:23:53;;;;;;;4.30;3.42;;;;;;;14.08;98.30;102539.72;4996222;28;20113;-78
2022/08/08 01:26:36;;;;;;;4.75;3.50;;;;;;;14.05;97.70;102538.03;5019537;28;20037;-78
2022/08/08 01:29:31;;;;;;;4.60;3.42;;;;;;;14.04;97.48;102535.41;5000355;28;20124;-79
2022/08/08 01:32:19;;;;;;;5.90;3.38;;;;;;;14.02;97.33;102535.47;5001203;28;20033;-79
2022/08/08 01:35:03;;;;;;;4.00;2.75;;;;;;;13.99;96.89;102531.13;5019119;28;20045;-79
2022/08/08 01:37:47;;;;;;;4.68;3.20;;;;;;;14.01;97.26;102538.19;5019138;28;20069;-79
2022/08/08 01:40:19;;;;;;;4.22;3.13;;;;;;;13.99;97.38;102540.88;5018599;28;20132;-78
2022/08/08 01:42:53;;;;;;;4.45;3.60;;;;;;;13.99;98.02;102535.56;5032669;28;20092;-78
2022/08/08 01:45:35;;;;;;;4.55;3.65;;;;;;;13.96;98.65;102536.53;5036915;28;20041;-78
2022/08/08 01:48:30;;;;;;;5.22;3.40;;;;;;;13.94;98.42;102537.53;5026116;28;20441;-78
2022/08/08 01:50:58;;;;;;;3.88;3.25;;;;;;;13.90;97.77;102536.72;5018602;28;20476;-78
2022/08/08 01:53:42;;;;;;;5.15;3.40;;;;;;;13.86;98.00;102551.06;5019191;28;20056;-79
2022/08/08 01:56:29;;;;;;;4.28;3.03;;;;;;;13.84;98.17;102536.97;5018573;28;20038;-78
2022/08/08 01:59:07;;;;;;;4.72;3.35;;;;;;;13.82;98.22;102538.78;5018242;28;20041;-78
2022/08/08 02:02:21;;;;;;;4.05;3.30;;;;;;;13.80;99.03;102549.50;5014214;28;20033;-78
2022/08/08 02:05:08;;;;;;;5.10;3.38;;;;;;;13.78;98.29;102553.13;4952765;28;20125;-78
2022/08/08 02:08:07;;;;;;;4.65;2.95;;;;;;;13.75;98.45;102550.53;5020406;28;20061;-77
2022/08/08 02:10:53;;;;;;;5.82;3.60;;;;;;;13.75;98.61;102553.19;5016640;28;20354;-77
2022/08/08 02:13:31;;;;;;;6.20;3.60;;;;;;;13.73;98.28;102555.91;5002514;28;20065;-78
2022/08/08 02:16:05;;;;;;;8.32;3.70;;;;;;;13.75;99.14;102553.19;5024764;28;20146;-78
2022/08/08 02:18:38;;;;;;;4.32;3.50;;;;;;;13.75;98.84;102553.19;5007713;28;20124;-78
2022/08/08 02:24:07;;;;;;;6.63;4.07;;;;;;;13.76;98.65;102549.63;5005364;28;20033;-78
2022/08/08 02:26:38;;;;;;;6.75;3.78;;;;;;;13.75;98.82;102547.88;5006686;28;21475;-79
2022/08/08 02:29:26;;;;;;;6.57;3.85;;;;;;;13.79;99.57;102546.88;5018097;28;20045;-79
2022/08/08 02:32:15;;;;;;;6.15;4.03;;;;;;;13.81;99.89;102542.38;5003920;28;20033;-79
2022/08/08 02:35:24;;;;;;;6.45;3.58;;;;;;;13.82;99.87;102544.97;4998600;28;20164;-79
2022/08/08 02:38:08;;;;;;;4.25;3.40;;;;;;;13.85;100.00;102547.53;5021557;28;20048;-79
2022/08/08 02:40:45;;;;;;;5.28;3.50;;;;;;;13.87;99.20;102547.50;5008102;28;20073;-78
2022/08/08 02:43:32;;;;;;;4.85;3.60;;;;;;;13.90;99.65;102541.19;5021260;28;20044;-78
2022/08/08 02:46:16;;;;;;;6.63;3.70;;;;;;;13.91;99.42;102543.81;5021935;28;20052;-79
2022/08/08 02:49:14;;;;;;;5.75;3.40;;;;;;;13.95;100.00;102540.13;5000881;28;20034;-79
2022/08/08 02:51:55;;;;;;;5.50;4.20;;;;;;;13.98;99.85;102539.16;5016487;28;20041;-79
2022/08/08 02:54:34;;;;;;;5.85;3.67;;;;;;;14.03;100.00;102541.66;4980017;28;20478;-79
2022/08/08 02:57:27;;;;;;;5.53;3.83;;;;;;;14.06;100.00;102545.09;5021916;28;20189;-79
2022/08/08 03:00:34;;;;;;;9.38;4.32;;;;;;;14.10;100.00;102554.72;5020615;28;20057;-79
2022/08/08 03:03:09;;;;;;;6.85;3.75;;;;;;;14.12;100.00;102550.22;4976388;28;20103;-79
2022/08/08 03:05:46;;;;;;;5.78;3.88;;;;;;;14.15;100.00;102557.22;5020577;28;20026;-79
2022/08/08 03:08:56;;;;;;;5.85;3.83;;;;;;;14.16;100.00;102553.66;5020877;28;20111;-78
2022/08/08 03:11:58;;;;;;;6.18;4.00;;;;;;;14.17;100.00;102554.53;4939966;28;20039;-79
2022/08/08 03:14:52;;;;;;;6.95;4.15;;;;;;;14.18;100.00;102551.81;4940156;28;20053;-79
2022/08/08 03:17:27;;;;;;;4.22;3.28;;;;;;;14.19;100.00;102556.22;4915118;29;20048;-79
2022/08/08 03:20:00;;;;;;;7.00;3.80;;;;;;;14.21;100.00;102545.50;4942881;28;20130;-79
2022/08/08 03:22:25;;;;;;;7.18;4.10;;;;;;;14.23;100.00;102544.53;4940328;28;20065;-79
2022/08/08 03:24:51;;;;;;;6.53;4.00;;;;;;;14.24;100.00;102550.72;4945080;28;20327;-78
2022/08/08 03:27:29;;;;;;;6.70;3.92;;;;;;;14.22;100.00;102558.78;4940241;28;20039;-78
2022/08/08 03:30:07;;;;;;;5.72;4.05;;;;;;;14.24;100.00;102556.94;4923320;28;20054;-78
2022/08/08 03:35:18;;;;;;;5.78;3.55;;;;;;;14.27;100.00;102561.28;4939185;28;20212;-79
2022/08/08 03:37:45;;;;;;;6.20;3.88;;;;;;;14.28;100.00;102555.03;4945101;28;20039;-78
2022/08/08 03:40:10;;;;;;;4.28;3.55;;;;;;;14.31;100.00;102556.72;4939040;28;20047;-79
2022/08/08 03:42:37;;;;;;;6.50;3.67;;;;;;;14.34;100.00;102561.94;4996618;28;20503;-78
2022/08/08 03:45:13;;;;;;;7.15;4.00;;;;;;;14.34;100.00;102546.81;5021993;28;20583;-79
2022/08/08 03:47:41;;;;;;;4.47;3.42;;;;;;;14.37;100.00;102557.38;5019998;28;20022;-79
2022/08/08 03:50:19;;;;;;;6.60;3.92;;;;;;;14.44;100.00;102562.50;4985608;28;20338;-79
2022/08/08 03:52:44;;;;;;;6.20;3.42;;;;;;;14.47;100.00;102567.72;5000214;28;20045;-77
2022/08/08 03:55:15;;;;;;;4.43;3.22;;;;;;;14.50;100.00;102571.13;5019214;28;20033;-78
2022/08/08 03:57:55;;;;;;;4.05;3.30;;;;;;;14.55;100.00;102580.78;5009390;28;20044;-78
2022/08/08 04:00:22;;;;;;;7.30;3.80;;;;;;;14.58;100.00;102575.34;5004695;28;20053;-78
2022/08/08 04:03:00;;;;;;;7.57;3.90;;;;;;;14.62;100.00;102583.19;5026397;28;20483;-78
2022/08/08 04:05:31;;;;;;;5.65;3.63;;;;;;;14.64;100.00;102583.13;5041740;28;20040;-78
2022/08/08 04:07:57;;;;;;;5.88;3.65;;;;;;;14.66;100.00;102584.81;5009058;28;20038;-78
2022/08/08 04:10:23;;;;;;;6.45;3.63;;;;;;;14.68;100.00;102582.09;5039771;28;20032;-78
2022/08/08 04:12:56;;;;;;;6.25;3.95;;;;;;;14.70;100.00;102579.38;5031860;28;20051;-79
2022/08/08 04:15:22;;;;;;;4.00;3.28;;;;;;;14.71;100.00;102581.97;5015668;28;20096;-79
2022/08/08 04:17:48;;;;;;;5.20;3.80;;;;;;;14.72;100.00;102588.19;5028829;28;20091;-79
2022/08/08 04:20:14;;;;;;;5.82;4.05;;;;;;;14.72;100.00;102582.84;5030075;28;20145;-78
2022/08/08 04:22:39;;;;;;;5.15;4.20;;;;;;;14.76;100.00;102590.72;5015939;28;20040;-79
2022/08/08 04:25:11;;;;;;;3.95;3.55;;;;;;;14.77;100.00;102584.47;5022995;28;20698;-79
2022/08/08 04:27:37;;;;;;;4.03;3.40;;;;;;;14.78;100.00;102580.00;5006636;28;20170;-79
2022/08/08 04:30:08;;;;;;;7.55;3.72;;;;;;;14.78;100.00;102575.53;5021412;28;20309;-79
2022/08/08 04:32:33;;;;;;;3.65;3.10;;;;;;;14.77;100.00;102579.13;5035743;28;20040;-79
2022/08/08 04:35:01;;;;;;;6.22;3.67;;;;;;;14.77;100.00;102571.13;5052368;28;20021;-80
2022/08/08 04:37:26;;;;;;;4.93;3.83;;;;;;;14.79;100.00;102581.75;5034266;28;20033;-80
2022/08/08 04:39:52;;;;;;;5.03;3.83;;;;;;;14.78;100.00;102577.34;5027055;28;20043;-78
2022/08/08 04:42:17;;;;;;;5.80;3.67;;;;;;;14.76;100.00;102574.72;5017150;28;21419;-79
2022/08/08 04:44:43;;;;;;;4.20;3.50;;;;;;;14.77;100.00;102575.59;5039853;28;20060;-79
2022/08/08 04:47:11;;;;;;;6.60;3.50;;;;;;;14.75;100.00;102580.97;5031971;28;20037;-80
2022/08/08 04:49:37;;;;;;;3.85;3.33;;;;;;;14.75;100.00;102582.75;5011643;28;20067;-79
2022/08/08 04:52:02;;;;;;;5.30;4.00;;;;;;;14.75;100.00;102586.31;5037335;28;20056;-79
2022/08/08 04:54:28;;;;;;;5.03;3.65;;;;;;;14.74;100.00;102581.03;5041489;28;20183;-79
2022/08/08 04:56:53;;;;;;;6.07;3.47;;;;;;;14.72;100.00;102578.41;5036028;28;20163;-79
2022/08/08 04:59:19;;;;;;;5.90;3.75;;;;;;;14.73;100.00;102582.81;5035770;28;20154;-78
2022/08/08 05:01:44;;;;;;;4.10;3.30;;;;;;;14.74;100.00;102586.38;5038459;28;20116;-79
2022/08/08 05:04:10;;;;;;;5.53;3.75;;;;;;;14.74;100.00;102581.03;5029308;28;20044;-80
2022/08/08 05:06:36;;;;;;;7.30;4.03;;;;;;;14.73;100.00;102589.91;5039199;28;20238;-80
2022/08/08 05:09:02;;;;;;;5.30;3.60;;;;;;;14.75;100.00;102585.44;5038128;28;20056;-80
2022/08/08 05:11:28;;;;;;;6.38;3.90;;;;;;;14.77;100.00;102581.78;5038796;28;20033;-80
2022/08/08 05:13:53;;;;;;;5.03;3.80;;;;;;;14.80;100.00;102591.47;5041048;28;20044;-79
2022/08/08 05:16:19;;;;;;;6.45;3.97;;;;;;;14.81;100.00;102590.53;5016510;28;20024;-79
2022/08/08 05:18:44;;;;;;;4.75;3.78;;;;;;;14.86;100.00;102590.41;5019495;28;20121;-79
2022/08/08 05:21:10;;;;;;;4.65;3.83;;;;;;;14.89;100.00;102599.16;5038118;28;20526;-79
2022/08/08 05:23:35;;;;;;;5.93;3.95;;;;;;;14.94;100.00;102599.00;5040018;28;20530;-79
2022/08/08 05:26:02;;;;;;;4.78;3.40;;;;;;;15.00;100.00;102603.22;5010406;28;20040;-79
2022/08/08 05:28:27;;;;;;;5.82;3.67;;;;;;;15.05;100.00;102602.13;5037779;28;20399;-79
2022/08/08 05:30:53;;;;;;;6.35;4.00;;;;;;;15.11;100.00;102608.16;5019145;28;20036;-79
2022/08/08 05:33:18;;;;;;;4.88;3.97;;;;;;;15.13;100.00;102606.31;5020117;28;20044;-79
2022/08/08 05:35:45;;;;;;;5.03;4.05;;;;;;;15.16;100.00;102617.72;5034940;28;20533;-79
2022/08/08 05:38:13;;;;;;;7.40;4.30;;;;;;;15.17;100.00;102606.16;5035419;28;20044;-79
2022/08/08 05:40:47;;;;;;;9.02;4.30;;;;;;;15.21;100.00;102604.25;5036826;28;20506;-79
2022/08/08 05:43:23;;;;;;;6.63;4.38;;;;;;;15.26;100.00;102609.41;5022919;28;20041;-79
2022/08/08 05:45:48;;;;;;;7.07;3.72;;;;;;;15.28;100.00;102613.75;5026747;28;20130;-79
2022/08/08 05:48:15;;;;;;;6.00;4.60;;;;;;;15.31;100.00;102610.97;5027591;28;20033;-79
2022/08/08 05:50:41;;;;;;;5.38;4.25;;;;;;;15.37;100.00;102617.00;5026601;28;20512;-79
2022/08/08 05:53:06;;;;;;;5.45;4.30;;;;;;;15.43;100.00;102612.28;5023121;28;20033;-79
2022/08/08 05:55:33;;;;;;;6.97;4.70;;;;;;;15.53;100.00;102611.97;5020327;28;20025;-79
2022/08/08 05:57:59;;;;;;;6.57;4.35;;;;;;;15.78;100.00;102603.84;5040437;28;20041;-79
2022/08/08 06:00:32;;;;;;;7.88;4.80;;;;;;;16.01;100.00;102607.44;5035899;28;20445;-79
2022/08/08 06:03:09;;;;;;;6.07;4.72;;;;;;;16.24;100.00;102613.66;5022239;28;20082;-80
2022/08/08 06:05:49;;;;;;;5.72;4.15;;;;;;;16.46;100.00;102615.41;5002649;28;20033;-80
2022/08/08 06:08:16;;;;;;;5.55;4.20;;;;;;;16.65;100.00;102613.69;5027958;28;20126;-79
2022/08/08 06:10:45;;;;;;;5.32;4.32;;;;;;;16.85;100.00;102617.31;5026240;28;20037;-79
2022/08/08 06:13:10;;;;;;;5.25;3.90;;;;;;;17.07;100.00;102613.69;5034162;28;20017;-79
2022/08/08 06:15:55;;;;;;;7.13;4.03;;;;;;;17.32;100.00;102620.63;5020630;28;20494;-79
2022/08/08 06:18:25;;;;;;;5.50;3.50;;;;;;;17.53;99.85;102625.91;5034293;28;20559;-79
2022/08/08 06:20:56;;;;;;;3.50;3.10;;;;;;;17.70;98.44;102620.63;5033384;28;20106;-80
2022/08/08 06:23:22;;;;;;;4.30;3.10;;;;;;;17.90;98.15;102624.16;5026889;28;20661;-79
2022/08/08 06:26:01;;;;;;;6.43;3.08;;;;;;;18.12;98.07;102628.47;5040896;28;20056;-79
2022/08/08 06:28:37;;;;;;;4.22;2.80;;;;;;;18.29;96.78;102631.19;5043256;28;20029;-78
2022/08/08 06:31:05;;;;;;;2.80;2.35;;;;;;;18.47;96.02;102628.56;5043346;28;20051;-79
2022/08/08 06:33:54;;;;;;;3.75;2.50;;;;;;;18.66;95.44;102630.25;5040778;28;20158;-79
2022/08/08 06:36:27;;;;;;;5.05;2.67;;;;;;;18.87;94.99;102631.81;5038327;28;20124;-79
2022/08/08 06:38:54;;;;;;;2.85;2.08;;;;;;;18.98;94.02;102630.41;5041653;28;20037;-78
2022/08/08 06:41:21;;;;;;;4.30;2.70;;;;;;;19.03;94.10;102622.13;5042241;28;20167;-78
2022/08/08 06:43:50;;;;;;;2.60;1.92;;;;;;;19.17;93.89;102630.31;5040142;28;20108;-79
2022/08/08 06:46:16;;;;;;;3.15;1.83;;;;;;;19.38;93.52;102633.66;5026661;28;20037;-79
2022/08/08 06:48:41;;;;;;;2.80;1.90;;;;;;;19.55;93.28;102629.16;5027486;28;20058;-80
2022/08/08 06:51:08;;;;;;;3.20;2.22;;;;;;;19.74;92.72;102636.19;5022357;28;20568;-80
2022/08/08 06:53:35;;;;;;;3.78;1.80;;;;;;;19.94;92.48;102635.91;5024091;28;20093;-79
2022/08/08 06:56:01;;;;;;;1.30;1.20;;;;;;;20.02;91.33;102635.53;5042102;28;20029;-79
2022/08/08 06:58:26;;;;;;;1.35;0.95;;;;;;;20.02;90.46;102642.72;5026499;28;21517;-79
2022/08/08 07:00:52;;;;;;;1.95;1.27;;;;;;;20.05;90.39;102643.41;4987132;28;20641;-79
2022/08/08 07:03:41;;;;;;;1.02;0.80;;;;;;;20.13;85.68;102642.09;5026747;28;20028;-78
2022/08/08 07:06:09;;;;;;;1.27;1.00;;;;;;;20.24;88.82;102636.06;5014711;28;20076;-78
2022/08/08 07:08:38;;;;;;;2.38;1.20;;;;;;;20.31;88.84;102640.13;5009941;28;20029;-79
2022/08/08 07:11:07;;;;;;;2.15;1.20;;;;;;;20.44;88.49;102634.91;5038047;28;20163;-79
2022/08/08 07:13:38;;;;;;;1.15;1.02;;;;;;;20.60;88.15;102637.56;5037940;28;20163;-79
2022/08/08 07:16:09;;;;;;;1.50;1.00;;;;;;;20.85;87.89;102645.03;5013413;28;20514;-79
2022/08/08 07:18:34;;;;;;;2.13;0.90;;;;;;;20.87;86.49;102643.13;5040127;28;20918;-81
2022/08/08 07:21:05;;;;;;;0.68;0.68;;;;;;;20.85;85.87;102636.97;5032472;28;20037;-79
2022/08/08 07:23:38;;;;;;;0.80;0.80;;;;;;;20.76;84.24;102643.75;5037006;28;20060;-78
2022/08/08 07:26:07;;;;;;;3.25;1.17;;;;;;;20.72;85.86;102634.13;5024862;28;20038;-80
2022/08/08 07:28:43;;;;;;;0.82;0.80;;;;;;;20.70;86.31;102644.09;5016737;28;20029;-79
2022/08/08 07:31:11;;;;;;;1.13;0.70;;;;;;;20.72;85.27;102647.59;5025504;28;20046;-80
2022/08/08 07:33:37;;;;;;;0.70;0.70;;;;;;;20.65;84.94;102640.84;5051974;28;20037;-79
2022/08/08 07:36:06;;;;;;;1.40;1.05;;;;;;;20.58;84.33;102643.03;5022618;28;20040;-78
2022/08/08 07:38:32;;;;;;;1.10;1.00;;;;;;;20.49;84.41;102649.81;5037662;28;20025;-79
2022/08/08 07:40:57;;;;;;;1.15;1.05;;;;;;;20.47;85.05;102649.06;5025303;28;20036;-81
2022/08/08 07:43:23;;;;;;;2.17;0.90;;;;;;;20.40;84.69;102652.19;5038773;28;20039;-80
2022/08/08 07:45:49;;;;;;;1.85;0.90;;;;;;;20.37;84.55;102649.69;5012955;28;20480;-80
2022/08/08 07:48:14;;;;;;;0.80;0.80;;;;;;;20.24;84.45;102647.72;5015449;28;20092;-80
2022/08/08 07:50:42;;;;;;;0.90;0.90;;;;;;;20.09;84.26;102652.16;5034253;28;20052;-79
2022/08/08 07:53:17;;;;;;;1.58;0.85;;;;;;;19.97;84.05;102652.84;4988441;28;20080;-79
2022/08/08 07:55:43;;;;;;;2.00;0.80;;;;;;;19.94;84.17;102657.41;5039970;28;20095;-79
2022/08/08 07:58:08;;;;;;;1.65;1.00;;;;;;;19.95;84.69;102661.88;5023559;28;20137;-80
2022/08/08 08:00:58;;;;;;;1.05;0.98;;;;;;;19.91;83.74;102659.41;5007507;28;20037;-79
2022/08/08 08:03:36;;;;;;;1.20;0.93;;;;;;;19.83;84.16;102665.22;5001695;28;20038;-79
2022/08/08 08:06:04;;;;;;;1.67;1.00;;;;;;;19.79;84.75;102666.34;4990039;28;20103;-79
2022/08/08 08:08:41;;;;;;;1.10;1.00;;;;;;;19.72;84.44;102670.34;5016622;28;21529;-79
2022/08/08 08:11:11;;;;;;;1.70;1.05;;;;;;;19.71;84.61;102674.00;5019186;28;21357;-79
2022/08/08 08:13:52;;;;;;;1.42;1.08;;;;;;;19.84;83.84;102683.09;5004491;28;20589;-78
2022/08/08 08:16:21;;;;;;;2.15;1.20;;;;;;;20.03;84.25;102679.38;5019216;28;20042;-79
2022/08/08 08:18:52;;;;;;;3.45;1.00;;;;;;;20.19;83.57;102684.75;5020133;28;20030;-78
2022/08/08 08:21:18;;;;;;;1.33;1.10;;;;;;;20.20;83.28;102689.16;5000322;28;20480;-80
2022/08/08 08:23:43;;;;;;;1.30;1.00;;;;;;;20.20;83.13;102676.59;5012232;28;20455;-79
2022/08/08 08:26:10;;;;;;;1.23;1.10;;;;;;;20.24;83.30;102684.47;5005266;28;20087;-80
2022/08/08 08:28:35;;;;;;;1.40;1.02;;;;;;;20.16;82.81;102688.47;5018455;28;20516;-80
2022/08/08 08:31:04;;;;;;;1.10;1.10;;;;;;;20.17;83.14;102684.88;5018925;28;20117;-80
2022/08/08 08:33:31;;;;;;;2.03;1.30;;;;;;;20.09;82.76;102681.72;5016017;28;20033;-79
2022/08/08 08:35:57;;;;;;;1.90;1.10;;;;;;;20.08;82.73;102680.88;5017328;28;20022;-79
2022/08/08 08:38:22;;;;;;;2.17;1.23;;;;;;;20.14;82.68;102685.03;5018753;28;20504;-79
2022/08/08 08:40:49;;;;;;;2.90;1.33;;;;;;;20.19;82.78;102685.63;5001140;28;20136;-79
2022/08/08 08:43:16;;;;;;;2.45;1.20;;;;;;;20.22;82.65;102682.75;4998750;28;20044;-79
2022/08/08 08:45:42;;;;;;;1.65;1.27;;;;;;;20.20;82.65;102681.97;5000488;28;20032;-80
2022/08/08 08:48:09;;;;;;;1.13;1.02;;;;;;;20.22;82.22;102682.75;4995862;28;21707;-78
2022/08/08 08:50:36;;;;;;;1.20;1.10;;;;;;;20.19;82.24;102684.75;5014828;28;20451;-80
2022/08/08 08:53:06;;;;;;;3.85;1.50;;;;;;;20.13;82.49;102696.75;5021252;28;20787;-80
2022/08/08 08:55:34;;;;;;;1.90;1.70;;;;;;;20.10;82.03;102693.34;5020559;28;20034;-80
2022/08/08 08:58:00;;;;;;;3.00;1.80;;;;;;;20.02;81.85;102702.72;5020509;28;20050;-80
2022/08/08 09:00:26;;;;;;;3.75;1.42;;;;;;;19.95;82.04;102699.50;5001107;28;20046;-80
2022/08/08 09:02:52;;;;;;;5.97;1.60;;;;;;;19.88;82.65;102694.53;4997697;28;20037;-79
2022/08/08 09:05:20;;;;;;;2.08;1.42;;;;;;;19.82;82.55;102701.09;5008304;28;20037;-80
2022/08/08 09:07:46;;;;;;;2.00;1.33;;;;;;;19.74;82.63;102700.66;5002944;28;20068;-81
2022/08/08 09:10:14;;;;;;;1.20;1.02;;;;;;;19.63;82.56;102709.31;5019102;28;20527;-79
2022/08/08 09:12:43;;;;;;;2.65;1.50;;;;;;;19.60;82.91;102702.31;5016717;28;20110;-80
2022/08/08 09:15:10;;;;;;;1.42;1.30;;;;;;;19.61;83.09;102711.25;4999123;28;20372;-80
2022/08/08 09:17:36;;;;;;;9.93;2.33;;;;;;;19.63;83.21;102707.53;5008502;28;20088;-78
2022/08/08 09:20:02;;;;;;;3.08;1.20;;;;;;;19.64;82.66;102716.44;5012408;28;20103;-79
2022/08/08 09:22:28;;;;;;;1.10;1.10;;;;;;;19.60;82.39;102718.41;4999818;28;20028;-80
2022/08/08 09:24:55;;;;;;;16.67;3.17;;;;;;;19.62;82.38;102712.97;5018342;28;20045;-79
2022/08/08 09:27:21;;;;;;;1.58;1.17;;;;;;;19.59;81.98;102724.75;5017656;28;20030;-79
2022/08/08 09:30:09;;;;;;;1.17;1.08;;;;;;;19.52;81.89;102720.66;4999855;28;20034;-80
2022/08/08 09:32:36;;;;;;;4.20;1.33;;;;;;;19.48;82.14;102725.31;5016097;28;20358;-80
2022/08/08 09:35:13;;;;;;;1.98;1.70;;;;;;;19.39;82.79;102721.31;4995726;28;20033;-80
2022/08/08 09:37:45;;;;;;;2.53;1.70;;;;;;;19.31;83.58;102728.03;4999810;28;20034;-80
2022/08/08 09:40:15;;;;;;;1.90;1.80;;;;;;;19.21;84.00;102724.97;5019238;28;20045;-79
2022/08/08 09:42:46;;;;;;;2.80;1.80;;;;;;;19.11;84.65;102725.47;4998064;28;20048;-79
2022/08/08 09:45:19;;;;;;;1.90;1.70;;;;;;;19.04;85.07;102742.84;5002329;28;20128;-79
2022/08/08 09:47:45;;;;;;;2.95;1.63;;;;;;;18.97;84.99;102733.34;5018330;28;20371;-78
2022/08/08 09:50:17;;;;;;;2.72;1.50;;;;;;;18.93;85.57;102729.06;5013107;28;20164;-78
2022/08/08 09:52:51;;;;;;;2.75;1.40;;;;;;;18.89;85.46;102731.03;5016388;28;20040;-79
2022/08/08 09:55:18;;;;;;;1.70;1.33;;;;;;;18.92;85.10;102730.00;5001154;28;20472;-79
2022/08/08 09:57:51;;;;;;;1.67;1.30;;;;;;;18.94;85.30;102722.72;4988425;28;20155;-79
2022/08/08 10:00:21;;;;;;;1.85;1.40;;;;;;;18.97;84.78;102728.81;5013710;28;20073;-82
2022/08/08 10:02:49;;;;;;;1.80;1.55;;;;;;;19.02;84.65;102733.09;5029228;28;20041;-81
2022/08/08 10:05:20;;;;;;;2.20;1.48;;;;;;;19.10;84.44;102730.91;5018713;28;20509;-80
2022/08/08 10:07:52;;;;;;;5.00;1.50;;;;;;;19.16;84.05;102721.69;5032111;28;20036;-81
2022/08/08 10:10:26;;;;;;;2.17;1.30;;;;;;;19.23;84.06;102728.47;5032553;28;20095;-81
2022/08/08 10:12:52;;;;;;;3.67;1.40;;;;;;;19.31;84.04;102726.22;5031911;28;20441;-81
2022/08/08 10:15:18;;;;;;;2.47;1.40;;;;;;;19.41;84.00;102727.47;5000695;28;20029;-81
2022/08/08 10:17:48;;;;;;;2.08;1.30;;;;;;;19.54;83.68;102729.50;5024372;28;20154;-81
2022/08/08 10:20:14;;;;;;;1.88;1.25;;;;;;;19.62;83.33;102732.63;5036277;28;20037;-80
2022/08/08 10:22:53;;;;;;;1.33;1.10;;;;;;;19.72;83.34;102727.63;5049796;28;20036;-80
2022/08/08 10:25:20;;;;;;;2.42;1.40;;;;;;;19.79;82.57;102726.31;5044806;28;20042;-79
2022/08/08 10:27:50;;;;;;;3.05;1.60;;;;;;;19.87;82.72;102725.91;5043388;28;20029;-86
2022/08/08 10:30:16;;;;;;;1.30;1.20;;;;;;;19.93;82.31;102725.56;5031492;28;20028;-78
2022/08/08 10:32:49;;;;;;;1.48;1.10;;;;;;;19.99;82.11;102728.91;5033621;28;20036;-79
2022/08/08 10:35:17;;;;;;;3.30;1.30;;;;;;;20.03;81.73;102727.75;5037976;28;20660;-79
2022/08/08 10:38:03;;;;;;;5.80;2.10;;;;;;;19.97;81.33;102728.09;5034353;28;20037;-80
2022/08/08 10:40:30;;;;;;;1.30;1.20;;;;;;;20.02;81.42;102726.03;5035125;28;20040;-80
2022/08/08 10:42:58;;;;;;;1.92;1.10;;;;;;;20.09;80.29;102727.44;5034503;28;20041;-82
2022/08/08 10:45:24;;;;;;;1.17;1.08;;;;;;;20.14;80.90;102725.34;5016342;28;20033;-83
2022/08/08 10:47:59;;;;;;;1.15;1.05;;;;;;;20.26;80.97;102725.63;5036363;28;21093;-82
2022/08/08 10:50:36;;;;;;;1.33;1.23;;;;;;;20.30;79.96;102730.72;5040212;28;20040;-82
2022/08/08 10:53:10;;;;;;;2.05;1.40;;;;;;;20.31;80.19;102731.56;5035638;28;20068;-83
2022/08/08 10:55:37;;;;;;;1.90;1.25;;;;;;;20.28;80.29;102731.75;5024043;28;20036;-83
2022/08/08 10:58:05;;;;;;;2.65;1.20;;;;;;;20.29;80.22;102728.13;5018753;28;20049;-82
2022/08/08 11:00:31;;;;;;;1.15;1.10;;;;;;;20.25;79.87;102719.34;5002128;28;20037;-84
2022/08/08 11:03:10;;;;;;;1.30;1.20;;;;;;;20.30;79.72;102724.47;4999255;28;20160;-83
2022/08/08 11:05:49;;;;;;;1.38;1.27;;;;;;;20.30;79.74;102714.59;4992009;28;20605;-80
2022/08/08 11:08:23;;;;;;;1.63;1.10;;;;;;;20.35;79.70;102717.88;5007192;28;20507;-80
2022/08/08 11:11:06;;;;;;;1.30;1.20;;;;;;;20.44;79.29;102716.47;4998684;28;20037;-78
2022/08/08 11:13:43;;;;;;;2.00;1.00;;;;;;;20.50;79.00;102717.94;5012764;28;20160;-79
2022/08/08 11:16:16;;;;;;;1.10;0.98;;;;;;;20.60;79.16;102712.91;5015845;28;21825;-79
2022/08/08 11:18:43;;;;;;;1.38;1.00;;;;;;;20.64;78.28;102709.06;5016151;28;20091;-79
2022/08/08 11:21:12;;;;;;;1.20;1.02;;;;;;;20.63;77.97;102712.69;5004517;28;20475;-81
2022/08/08 11:23:41;;;;;;;1.77;0.98;;;;;;;20.59;78.35;102713.84;5004807;28;20113;-80
2022/08/08 11:26:10;;;;;;;2.03;1.10;;;;;;;20.55;78.18;102712.28;5017251;28;20132;-80
2022/08/08 11:28:36;;;;;;;0.80;0.80;;;;;;;20.51;77.74;102716.09;4997824;28;20042;-79
2022/08/08 11:31:03;;;;;;;0.95;0.95;;;;;;;20.44;77.66;102716.47;5012414;28;20041;-81
2022/08/08 11:33:31;;;;;;;1.10;1.00;;;;;;;20.42;77.92;102722.91;5014731;28;20116;-79
2022/08/08 11:35:56;;;;;;;1.67;0.98;;;;;;;20.39;77.70;102723.97;5016464;28;20155;-79
2022/08/08 11:38:23;;;;;;;1.20;1.02;;;;;;;20.34;77.86;102723.34;5013862;28;20132;-79
2022/08/08 11:40:50;;;;;;;1.00;0.90;;;;;;;20.33;77.82;102721.63;4996461;28;20065;-79
2022/08/08 11:43:16;;;;;;;1.58;1.00;;;;;;;20.30;77.63;102719.97;4994687;28;20038;-79
2022/08/08 11:45:44;;;;;;;0.98;0.90;;;;;;;20.29;77.56;102714.66;4985849;28;20230;-79
2022/08/08 11:48:12;;;;;;;0.93;0.93;;;;;;;20.24;76.99;102719.44;5014311;28;20030;-79
2022/08/08 11:50:38;;;;;;;1.08;0.90;;;;;;;20.23;77.22;102718.59;5017982;28;20073;-79
2022/08/08 11:53:07;;;;;;;2.83;1.10;;;;;;;20.22;77.37;102719.53;5021151;28;20025;-79
2022/08/08 11:55:48;;;;;;;1.85;0.90;;;;;;;20.25;76.93;102716.66;5018530;28;20136;-79